Time;durP1;ratioP1;P1;durP2;ratioP2;P2;SDS_P1;SDS_P2;PMS_P1;PMS_P2;Temp;Humidity;BMP_temperature;BMP_pressure;BME280_temperature;BME280_humidity;BME280_pressure;Samples;Min_cycle;Max_cycle;Signal;HPM_P1;HPM_P2
2022/11/20 00:01:22;;;;;;;6.60;5.78;;;6.00;99.90;;;;;;5059474;28;20224;-84
2022/11/20 00:03:50;;;;;;;5.38;4.90;;;6.10;99.90;;;;;;5070563;28;20201;-83
2022/11/20 00:06:19;;;;;;;5.97;5.47;;;6.10;99.90;;;;;;5078912;28;20204;-84
2022/11/20 00:08:48;;;;;;;6.18;5.00;;;6.10;99.90;;;;;;5077122;28;20201;-84
2022/11/20 00:11:17;;;;;;;4.68;4.38;;;6.10;99.90;;;;;;5076609;28;20220;-84
2022/11/20 00:13:45;;;;;;;5.50;5.10;;;6.10;99.90;;;;;;5078654;28;20254;-84
2022/11/20 00:16:14;;;;;;;6.22;5.45;;;6.10;99.90;;;;;;5077102;28;20216;-85
2022/11/20 00:18:42;;;;;;;5.90;5.30;;;6.10;99.90;;;;;;5076353;28;20201;-85
2022/11/20 00:21:13;;;;;;;6.53;4.85;;;6.00;99.90;;;;;;5078000;28;20307;-85
2022/11/20 00:23:49;;;;;;;5.32;4.82;;;6.00;99.90;;;;;;5072385;28;20205;-85
2022/11/20 00:26:17;;;;;;;6.63;5.18;;;6.10;99.90;;;;;;5067121;28;20197;-84
2022/11/20 00:28:50;;;;;;;5.22;4.43;;;6.10;99.90;;;;;;5071929;28;20197;-85
2022/11/20 00:31:19;;;;;;;5.35;4.85;;;6.20;99.90;;;;;;5070829;28;20235;-84
2022/11/20 00:33:47;;;;;;;6.35;5.53;;;6.10;99.90;;;;;;5071684;28;20201;-85
2022/11/20 00:36:17;;;;;;;5.55;5.05;;;5.90;99.90;;;;;;5071474;28;20204;-84
2022/11/20 00:38:45;;;;;;;7.05;5.60;;;5.90;99.90;;;;;;5075546;28;20201;-85
2022/11/20 00:41:17;;;;;;;5.88;5.38;;;5.80;99.90;;;;;;5090895;28;20233;-83
2022/11/20 00:43:49;;;;;;;5.63;5.10;;;5.90;99.90;;;;;;5073959;28;20638;-84
2022/11/20 00:46:18;;;;;;;6.80;5.72;;;5.90;99.90;;;;;;5073928;28;20661;-85
2022/11/20 00:48:48;;;;;;;5.40;4.90;;;5.70;99.90;;;;;;5074676;28;20209;-85
2022/11/20 00:51:17;;;;;;;4.90;4.50;;;5.70;99.90;;;;;;5075231;28;20257;-85
2022/11/20 00:53:44;;;;;;;4.38;4.07;;;5.60;99.90;;;;;;5074708;28;20247;-85
2022/11/20 00:56:13;;;;;;;7.10;4.82;;;5.50;99.90;;;;;;5077268;28;20207;-85
2022/11/20 00:58:43;;;;;;;6.68;6.07;;;5.60;99.90;;;;;;5075493;28;20208;-85
2022/11/20 01:01:12;;;;;;;8.38;4.95;;;5.60;99.90;;;;;;5076475;28;20259;-85
2022/11/20 01:03:41;;;;;;;5.78;5.28;;;5.70;99.90;;;;;;5076785;28;20200;-85
2022/11/20 01:06:12;;;;;;;5.50;4.97;;;5.80;99.90;;;;;;5077686;28;20211;-85
2022/11/20 01:08:40;;;;;;;6.65;4.50;;;5.70;99.90;;;;;;5066060;28;20240;-85
2022/11/20 01:11:09;;;;;;;5.60;4.72;;;5.50;99.90;;;;;;5068076;28;20247;-85
2022/11/20 01:13:40;;;;;;;5.50;4.70;;;5.50;99.90;;;;;;5066987;28;20236;-84
2022/11/20 01:16:12;;;;;;;6.40;5.70;;;5.50;99.90;;;;;;5085586;28;20204;-85
2022/11/20 01:18:42;;;;;;;7.80;4.53;;;5.60;99.90;;;;;;5087309;28;20212;-85
2022/11/20 01:21:18;;;;;;;5.47;4.93;;;5.60;99.90;;;;;;5070526;28;20229;-84
2022/11/20 01:23:46;;;;;;;4.68;4.35;;;5.80;99.90;;;;;;5066721;28;20204;-85
2022/11/20 01:26:15;;;;;;;5.53;5.05;;;5.80;99.90;;;;;;5066487;28;20208;-85
2022/11/20 01:28:42;;;;;;;5.60;5.10;;;5.70;99.90;;;;;;5065566;28;20655;-84
2022/11/20 01:31:16;;;;;;;5.90;5.40;;;5.60;99.90;;;;;;5084429;28;20221;-84
2022/11/20 01:33:45;;;;;;;8.02;7.30;;;5.60;99.90;;;;;;5095963;28;20232;-84
2022/11/20 01:36:13;;;;;;;8.15;7.35;;;5.60;99.90;;;;;;5069384;28;20201;-84
2022/11/20 01:38:40;;;;;;;7.75;7.07;;;5.50;99.90;;;;;;5067145;28;20205;-84
2022/11/20 01:41:08;;;;;;;7.97;7.18;;;5.40;99.90;;;;;;5070420;28;20229;-85
2022/11/20 01:43:37;;;;;;;6.05;5.55;;;5.40;99.90;;;;;;5067928;28;20206;-84
2022/11/20 01:46:07;;;;;;;7.80;4.85;;;5.30;99.90;;;;;;5083548;28;20219;-84
2022/11/20 01:48:43;;;;;;;4.88;4.13;;;5.20;99.90;;;;;;5071729;28;20213;-84
2022/11/20 01:51:20;;;;;;;8.25;4.20;;;5.30;99.90;;;;;;5085021;28;20239;-84
2022/11/20 01:53:49;;;;;;;5.80;4.60;;;5.30;99.90;;;;;;5084048;28;20228;-84
2022/11/20 01:56:18;;;;;;;5.75;4.10;;;5.10;99.90;;;;;;5084104;28;20224;-87
2022/11/20 01:58:52;;;;;;;5.28;4.90;;;5.10;99.90;;;;;;5072081;28;20198;-85
2022/11/20 02:01:21;;;;;;;4.90;4.40;;;4.90;99.90;;;;;;5080968;28;20218;-84
2022/11/20 02:03:52;;;;;;;6.60;4.20;;;4.80;99.90;;;;;;5064484;28;20208;-85
2022/11/20 02:06:25;;;;;;;5.47;4.78;;;4.90;99.90;;;;;;5066352;28;20205;-84
2022/11/20 02:08:52;;;;;;;4.22;3.90;;;4.90;99.90;;;;;;5084088;28;20205;-84
2022/11/20 02:11:19;;;;;;;4.13;3.72;;;4.90;99.90;;;;;;5080190;28;20251;-84
2022/11/20 02:13:45;;;;;;;4.65;3.35;;;4.90;99.90;;;;;;5064077;28;20221;-85
2022/11/20 02:16:20;;;;;;;6.00;3.95;;;4.80;99.90;;;;;;5064959;28;20214;-85
2022/11/20 02:18:50;;;;;;;4.13;3.60;;;4.90;99.90;;;;;;5072253;28;20243;-84
2022/11/20 02:21:34;;;;;;;5.05;4.28;;;4.80;99.90;;;;;;5065039;28;20283;-84
2022/11/20 02:24:10;;;;;;;4.47;4.07;;;4.90;99.90;;;;;;5070075;28;20216;-83
2022/11/20 02:26:47;;;;;;;5.00;4.60;;;4.90;99.90;;;;;;5064672;28;20570;-84
2022/11/20 02:29:16;;;;;;;3.90;3.53;;;4.90;99.90;;;;;;5063249;28;20213;-84
2022/11/20 02:31:44;;;;;;;4.35;4.05;;;4.90;99.90;;;;;;5082617;28;20209;-84
2022/11/20 02:34:11;;;;;;;4.10;3.70;;;4.90;99.90;;;;;;5063823;28;20290;-84
2022/11/20 02:36:58;;;;;;;4.95;4.53;;;5.00;99.90;;;;;;5062664;28;20213;-85
2022/11/20 02:39:29;;;;;;;5.97;4.55;;;5.10;99.90;;;;;;5060251;28;20210;-84
2022/11/20 02:41:58;;;;;;;4.50;4.10;;;4.90;99.90;;;;;;5080371;28;20215;-85
2022/11/20 02:44:25;;;;;;;5.28;4.50;;;5.00;99.90;;;;;;5072648;28;20193;-85
2022/11/20 02:46:51;;;;;;;5.40;4.35;;;5.00;99.90;;;;;;5066248;28;20212;-84
2022/11/20 02:49:19;;;;;;;4.30;3.90;;;5.10;99.90;;;;;;5065504;28;20202;-85
2022/11/20 02:51:45;;;;;;;5.97;5.32;;;5.00;99.90;;;;;;5063724;28;20279;-85
2022/11/20 02:54:15;;;;;;;8.60;5.22;;;5.00;99.90;;;;;;5077825;28;20733;-85
2022/11/20 02:56:44;;;;;;;4.80;4.30;;;5.10;99.90;;;;;;5082549;28;20208;-85
2022/11/20 02:59:10;;;;;;;5.97;5.38;;;5.10;99.90;;;;;;5080509;28;20575;-85
2022/11/20 03:01:39;;;;;;;6.13;5.53;;;5.10;99.90;;;;;;5063876;28;20212;-85
2022/11/20 03:04:06;;;;;;;5.20;4.70;;;5.10;99.90;;;;;;5074397;28;20220;-84
2022/11/20 03:06:33;;;;;;;6.20;5.70;;;5.10;99.90;;;;;;5079981;28;20215;-86
2022/11/20 03:09:04;;;;;;;6.47;5.90;;;5.00;99.90;;;;;;5069751;28;20224;-84
2022/11/20 03:11:31;;;;;;;6.97;6.13;;;5.20;99.90;;;;;;5063790;28;20222;-85
2022/11/20 03:14:03;;;;;;;5.70;5.20;;;5.10;99.90;;;;;;5081550;28;20225;-85
2022/11/20 03:16:34;;;;;;;8.43;6.30;;;5.20;99.90;;;;;;5087137;28;20197;-85
2022/11/20 03:19:01;;;;;;;5.10;4.60;;;5.20;99.90;;;;;;5057242;28;20208;-85
2022/11/20 03:21:28;;;;;;;7.75;6.95;;;5.20;99.90;;;;;;5064374;28;20218;-85
2022/11/20 03:23:55;;;;;;;6.72;6.13;;;5.30;99.90;;;;;;5082833;28;20211;-85
2022/11/20 03:26:26;;;;;;;6.22;5.00;;;5.40;99.90;;;;;;5068892;28;20269;-86
2022/11/20 03:28:55;;;;;;;5.70;5.20;;;5.30;99.90;;;;;;5061523;28;20347;-84
2022/11/20 03:31:25;;;;;;;7.13;6.63;;;5.30;99.90;;;;;;5072841;28;20229;-84
2022/11/20 03:33:53;;;;;;;5.72;5.07;;;5.40;99.90;;;;;;5081527;28;20224;-85
2022/11/20 03:36:21;;;;;;;8.98;5.43;;;5.30;99.90;;;;;;5068176;28;20801;-85
2022/11/20 03:38:49;;;;;;;6.07;5.53;;;5.20;99.90;;;;;;5059779;28;20206;-85
2022/11/20 08:01:11;;;;;;;5.68;3.25;;;5.70;99.90;;;;;;4912225;29;20309;-86
2022/11/20 08:24:35;;;;;;;4.43;4.13;;;6.10;99.90;;;;;;5068030;28;20210;-87
2022/11/20 08:30:49;;;;;;;2.95;2.58;;;6.20;99.90;;;;;;5065555;28;20237;-88
2022/11/20 08:33:17;;;;;;;3.15;2.78;;;6.20;99.90;;;;;;5069010;28;20218;-88
2022/11/20 08:35:44;;;;;;;3.22;3.03;;;6.30;99.90;;;;;;5070370;28;20205;-87
2022/11/20 08:38:10;;;;;;;2.65;2.45;;;6.40;99.90;;;;;;5071662;28;20269;-87
2022/11/20 08:40:37;;;;;;;3.30;3.00;;;6.40;99.90;;;;;;5070913;28;20229;-88
2022/11/20 08:43:04;;;;;;;3.65;3.35;;;6.50;99.90;;;;;;5071018;28;20269;-86
2022/11/20 08:45:31;;;;;;;2.28;2.03;;;6.50;99.90;;;;;;5070765;28;20269;-86
2022/11/20 08:48:03;;;;;;;2.90;2.70;;;6.50;99.90;;;;;;5069757;28;20212;-86
2022/11/20 08:50:31;;;;;;;2.40;2.20;;;6.50;99.90;;;;;;5069688;28;20252;-87
2022/11/20 08:53:03;;;;;;;2.33;2.22;;;6.60;99.90;;;;;;5068582;28;20229;-89
2022/11/20 08:55:30;;;;;;;2.92;2.20;;;6.70;99.90;;;;;;5076749;28;20694;-86
2022/11/20 08:57:57;;;;;;;2.40;2.20;;;6.70;99.90;;;;;;5075110;28;20261;-86
2022/11/20 09:00:24;;;;;;;3.90;1.90;;;6.80;99.90;;;;;;5074022;28;20225;-88
2022/11/20 09:02:51;;;;;;;2.70;1.60;;;6.90;99.90;;;;;;5075497;28;20212;-88
2022/11/20 09:05:19;;;;;;;2.20;2.00;;;7.00;99.90;;;;;;5075191;28;20202;-88
2022/11/20 09:07:46;;;;;;;2.05;1.90;;;7.20;99.90;;;;;;5074309;28;20212;-87
2022/11/20 09:10:13;;;;;;;1.95;1.85;;;7.20;99.90;;;;;;5073732;28;20289;-87
2022/11/20 09:12:40;;;;;;;2.15;1.50;;;7.30;99.90;;;;;;5074277;28;20201;-88
2022/11/20 09:15:08;;;;;;;1.52;1.40;;;7.30;99.90;;;;;;5070241;28;20269;-86
2022/11/20 09:17:34;;;;;;;1.85;1.38;;;7.20;99.90;;;;;;5067963;28;20205;-88
2022/11/20 09:20:01;;;;;;;1.40;1.30;;;7.10;99.90;;;;;;5067479;28;20233;-88
2022/11/20 09:22:29;;;;;;;1.55;1.45;;;7.10;99.90;;;;;;5068169;28;20224;-89
2022/11/20 09:24:56;;;;;;;2.10;1.67;;;7.20;99.90;;;;;;5067767;28;20202;-89
2022/11/20 09:27:23;;;;;;;1.42;1.33;;;7.00;99.90;;;;;;5068894;28;20206;-87
2022/11/20 09:29:50;;;;;;;1.17;1.17;;;7.00;99.90;;;;;;5067686;28;20221;-85
2022/11/20 09:32:17;;;;;;;1.40;1.40;;;7.10;99.90;;;;;;5070358;28;20240;-86
2022/11/20 09:34:44;;;;;;;1.17;1.17;;;7.20;99.90;;;;;;5068236;28;20228;-84
2022/11/20 09:37:10;;;;;;;1.15;1.10;;;7.30;99.90;;;;;;5066229;28;20209;-84
2022/11/20 09:42:37;;;;;;;1.65;1.55;;;7.30;99.90;;;;;;6059156;22;20559;-86
2022/11/20 09:45:22;;;;;;;1.30;0.80;;;7.30;99.90;;;;;;5058599;28;20209;-85
2022/11/20 09:48:15;;;;;;;1.00;1.00;;;7.20;99.90;;;;;;5058788;28;20190;-85
2022/11/20 09:50:50;;;;;;;0.65;0.63;;;7.10;99.90;;;;;;5058672;28;20597;-85
2022/11/20 09:53:24;;;;;;;1.23;1.13;;;7.00;99.90;;;;;;5058055;28;20316;-85
2022/11/20 09:55:52;;;;;;;1.00;1.00;;;6.90;99.90;;;;;;5058005;28;20292;-86
2022/11/20 09:58:30;;;;;;;0.98;0.98;;;7.00;99.90;;;;;;5059529;28;20216;-84
2022/11/20 10:01:11;;;;;;;0.90;0.90;;;7.00;99.90;;;;;;5060982;28;20305;-84
2022/11/20 10:03:47;;;;;;;1.20;1.10;;;7.00;99.90;;;;;;5058711;28;20239;-85
2022/11/20 10:06:22;;;;;;;1.05;1.05;;;7.00;99.90;;;;;;5059009;28;20236;-85
2022/11/20 10:09:07;;;;;;;0.98;0.98;;;7.20;99.90;;;;;;5059394;28;20580;-85
2022/11/20 10:11:43;;;;;;;0.82;0.52;;;7.10;99.90;;;;;;5059887;28;20225;-86
2022/11/20 10:17:18;;;;;;;0.88;0.88;;;7.00;99.90;;;;;;5056389;28;20197;-85
2022/11/20 10:19:55;;;;;;;1.27;1.17;;;6.90;99.90;;;;;;5057975;28;20609;-84
2022/11/20 10:22:45;;;;;;;0.80;0.80;;;7.00;99.90;;;;;;5059920;28;20631;-86
2022/11/20 10:25:15;;;;;;;1.20;1.10;;;7.00;99.90;;;;;;5061452;28;20345;-86
2022/11/20 10:28:07;;;;;;;0.70;0.70;;;7.10;99.90;;;;;;5060064;28;20186;-86
2022/11/20 10:30:39;;;;;;;0.90;0.90;;;7.00;99.90;;;;;;5059245;28;20222;-86
2022/11/20 10:33:15;;;;;;;2.55;0.90;;;7.00;99.90;;;;;;5059341;28;20405;-84
2022/11/20 10:35:55;;;;;;;1.05;1.05;;;7.00;99.90;;;;;;5059462;28;20220;-85
2022/11/20 10:38:26;;;;;;;0.60;0.60;;;6.90;99.90;;;;;;5060070;28;20319;-83
2022/11/20 10:41:24;;;;;;;0.93;0.90;;;6.70;99.90;;;;;;5059350;28;20229;-83
2022/11/20 10:43:50;;;;;;;0.70;0.70;;;6.80;99.90;;;;;;5060456;28;20258;-85
2022/11/20 10:46:21;;;;;;;0.88;0.88;;;6.70;99.90;;;;;;5077685;28;20678;-83
2022/11/20 10:48:49;;;;;;;1.30;1.02;;;6.70;99.90;;;;;;5077354;28;20204;-85
2022/11/20 10:51:28;;;;;;;2.05;1.35;;;6.70;99.90;;;;;;5078404;28;20225;-84
2022/11/20 10:53:59;;;;;;;2.15;1.73;;;6.60;99.90;;;;;;5078649;28;20677;-85
2022/11/20 10:56:32;;;;;;;1.95;1.60;;;6.70;99.90;;;;;;5079307;28;20243;-85
2022/11/20 10:59:36;;;;;;;0.85;0.65;;;6.80;99.90;;;;;;5078214;28;20205;-86
2022/11/20 11:02:16;;;;;;;1.42;1.33;;;6.70;99.90;;;;;;5055189;28;20224;-85
2022/11/20 11:04:50;;;;;;;2.15;1.42;;;6.70;99.90;;;;;;5076411;28;20191;-87
2022/11/20 11:07:28;;;;;;;1.05;0.95;;;6.60;99.90;;;;;;5073674;28;20200;-85
2022/11/20 11:09:56;;;;;;;1.65;1.55;;;6.80;99.90;;;;;;5077640;28;20205;-87
2022/11/20 11:12:26;;;;;;;2.17;2.08;;;6.70;99.90;;;;;;5049708;28;20206;-86
2022/11/20 11:14:53;;;;;;;1.75;1.65;;;6.60;99.90;;;;;;5060828;28;20596;-85
2022/11/20 11:17:30;;;;;;;1.85;1.75;;;6.70;99.90;;;;;;5051376;28;20208;-86
2022/11/20 11:20:02;;;;;;;2.80;2.10;;;6.90;99.90;;;;;;5041317;28;20198;-87
2022/11/20 11:22:31;;;;;;;2.45;2.25;;;7.00;99.90;;;;;;5055404;28;20194;-87
2022/11/20 11:24:58;;;;;;;1.13;1.13;;;7.10;99.90;;;;;;5055690;28;20200;-89
2022/11/20 11:27:27;;;;;;;2.28;1.85;;;7.10;99.90;;;;;;5053115;28;20282;-87
2022/11/20 11:30:12;;;;;;;1.50;1.40;;;7.20;99.90;;;;;;5052851;28;20224;-87
2022/11/20 11:32:44;;;;;;;1.90;1.80;;;7.40;99.90;;;;;;5060871;28;20203;-87
2022/11/20 11:35:23;;;;;;;1.92;1.63;;;7.70;99.90;;;;;;5046735;28;20206;-87
2022/11/20 11:38:03;;;;;;;2.25;2.15;;;8.20;99.90;;;;;;5055495;28;20717;-88
2022/11/20 11:40:33;;;;;;;1.70;1.60;;;8.90;99.90;;;;;;5059443;28;20260;-87
2022/11/20 11:45:04;;;;;;;1.50;1.40;;;9.70;99.90;;;;;;5072455;28;20215;-86
